sensor_id;sensor_type;location;lat;lon;timestamp;temperature;humidity
1996;DHT22;38556;47.068;15.408;2023-06-10T00:00:20;19.00;99.90
1996;DHT22;38556;47.068;15.408;2023-06-10T00:02:48;19.10;99.90
1996;DHT22;38556;47.068;15.408;2023-06-10T00:05:16;19.10;99.90
1996;DHT22;38556;47.068;15.408;2023-06-10T00:07:49;19.00;99.90
1996;DHT22;38556;47.068;15.408;2023-06-10T00:10:16;18.90;99.90
1996;DHT22;38556;47.068;15.408;2023-06-10T00:12:43;18.80;99.90
1996;DHT22;38556;47.068;15.408;2023-06-10T00:15:10;18.80;99.90
1996;DHT22;38556;47.068;15.408;2023-06-10T00:17:38;18.80;99.90
1996;DHT22;38556;47.068;15.408;2023-06-10T00:20:08;18.80;99.90
1996;DHT22;38556;47.068;15.408;2023-06-10T00:22:38;18.90;99.90
1996;DHT22;38556;47.068;15.408;2023-06-10T00:25:07;18.80;99.90
1996;DHT22;38556;47.068;15.408;2023-06-10T00:27:35;18.70;99.90
1996;DHT22;38556;47.068;15.408;2023-06-10T00:30:03;18.70;99.90
1996;DHT22;38556;47.068;15.408;2023-06-10T00:32:33;18.70;99.90
1996;DHT22;38556;47.068;15.408;2023-06-10T00:35:00;18.70;99.90
1996;DHT22;38556;47.068;15.408;2023-06-10T00:37:27;18.80;99.90
1996;DHT22;38556;47.068;15.408;2023-06-10T00:39:56;18.70;99.90
1996;DHT22;38556;47.068;15.408;2023-06-10T00:42:25;18.50;99.90
1996;DHT22;38556;47.068;15.408;2023-06-10T00:44:54;18.50;99.90
1996;DHT22;38556;47.068;15.408;2023-06-10T00:47:21;18.30;99.90
1996;DHT22;38556;47.068;15.408;2023-06-10T00:49:49;18.30;99.90
1996;DHT22;38556;47.068;15.408;2023-06-10T00:52:18;18.10;99.90
1996;DHT22;38556;47.068;15.408;2023-06-10T00:54:47;18.10;99.90
1996;DHT22;38556;47.068;15.408;2023-06-10T00:57:14;18.10;99.90
1996;DHT22;38556;47.068;15.408;2023-06-10T00:59:47;18.20;99.90
1996;DHT22;38556;47.068;15.408;2023-06-10T01:02:14;18.20;99.90
1996;DHT22;38556;47.068;15.408;2023-06-10T01:04:42;18.00;99.90
1996;DHT22;38556;47.068;15.408;2023-06-10T01:07:17;18.00;99.90
1996;DHT22;38556;47.068;15.408;2023-06-10T01:09:54;18.00;99.90
1996;DHT22;38556;47.068;15.408;2023-06-10T01:12:30;18.10;99.90
1996;DHT22;38556;47.068;15.408;2023-06-10T01:15:00;18.10;99.90
1996;DHT22;38556;47.068;15.408;2023-06-10T01:17:29;18.30;99.90
1996;DHT22;38556;47.068;15.408;2023-06-10T01:19:58;18.40;99.90
1996;DHT22;38556;47.068;15.408;2023-06-10T01:22:27;18.40;99.90
1996;DHT22;38556;47.068;15.408;2023-06-10T01:24:58;18.50;99.90
1996;DHT22;38556;47.068;15.408;2023-06-10T01:27:29;18.60;99.90
1996;DHT22;38556;47.068;15.408;2023-06-10T01:29:59;18.60;99.90
1996;DHT22;38556;47.068;15.408;2023-06-10T01:32:37;18.60;99.90
1996;DHT22;38556;47.068;15.408;2023-06-10T01:35:05;18.60;99.90
1996;DHT22;38556;47.068;15.408;2023-06-10T01:37:38;18.50;99.90
1996;DHT22;38556;47.068;15.408;2023-06-10T01:40:06;18.40;99.90
1996;DHT22;38556;47.068;15.408;2023-06-10T01:42:34;18.40;99.90
1996;DHT22;38556;47.068;15.408;2023-06-10T01:45:02;18.40;99.90
1996;DHT22;38556;47.068;15.408;2023-06-10T01:47:30;18.50;99.90
1996;DHT22;38556;47.068;15.408;2023-06-10T01:49:57;18.50;99.90
1996;DHT22;38556;47.068;15.408;2023-06-10T01:52:25;18.50;99.90
1996;DHT22;38556;47.068;15.408;2023-06-10T01:54:53;18.50;99.90
1996;DHT22;38556;47.068;15.408;2023-06-10T01:57:21;18.50;99.90
1996;DHT22;38556;47.068;15.408;2023-06-10T01:59:48;18.50;99.90
1996;DHT22;38556;47.068;15.408;2023-06-10T02:02:16;18.50;99.90
1996;DHT22;38556;47.068;15.408;2023-06-10T02:04:43;18.40;99.90
1996;DHT22;38556;47.068;15.408;2023-06-10T02:07:10;18.40;99.90
1996;DHT22;38556;47.068;15.408;2023-06-10T02:09:37;18.30;99.90
1996;DHT22;38556;47.068;15.408;2023-06-10T02:12:08;18.30;99.90
1996;DHT22;38556;47.068;15.408;2023-06-10T02:14:35;18.20;99.90
1996;DHT22;38556;47.068;15.408;2023-06-10T02:17:03;18.10;99.90
1996;DHT22;38556;47.068;15.408;2023-06-10T02:19:30;18.20;99.90
1996;DHT22;38556;47.068;15.408;2023-06-10T02:21:57;18.20;99.90
1996;DHT22;38556;47.068;15.408;2023-06-10T02:24:25;18.20;99.90
1996;DHT22;38556;47.068;15.408;2023-06-10T02:26:52;18.20;99.90
1996;DHT22;38556;47.068;15.408;2023-06-10T02:29:21;18.20;99.90
1996;DHT22;38556;47.068;15.408;2023-06-10T02:31:48;18.20;99.90
1996;DHT22;38556;47.068;15.408;2023-06-10T02:34:15;18.20;99.90
1996;DHT22;38556;47.068;15.408;2023-06-10T02:36:43;18.10;99.90
1996;DHT22;38556;47.068;15.408;2023-06-10T02:39:10;18.10;99.90
1996;DHT22;38556;47.068;15.408;2023-06-10T02:41:37;18.20;99.90
1996;DHT22;38556;47.068;15.408;2023-06-10T02:44:04;18.20;99.90
1996;DHT22;38556;47.068;15.408;2023-06-10T02:46:33;18.10;99.90
1996;DHT22;38556;47.068;15.408;2023-06-10T02:49:00;18.10;99.90
1996;DHT22;38556;47.068;15.408;2023-06-10T02:51:28;18.10;99.90
1996;DHT22;38556;47.068;15.408;2023-06-10T02:53:55;18.10;99.90
1996;DHT22;38556;47.068;15.408;2023-06-10T02:56:23;18.00;99.90
1996;DHT22;38556;47.068;15.408;2023-06-10T02:58:51;18.00;99.90
1996;DHT22;38556;47.068;15.408;2023-06-10T03:01:19;18.00;99.90
1996;DHT22;38556;47.068;15.408;2023-06-10T03:03:47;18.00;99.90
1996;DHT22;38556;47.068;15.408;2023-06-10T03:06:16;18.00;99.90
1996;DHT22;38556;47.068;15.408;2023-06-10T03:08:44;18.00;99.90
1996;DHT22;38556;47.068;15.408;2023-06-10T03:11:12;18.00;99.90
1996;DHT22;38556;47.068;15.408;2023-06-10T03:13:39;18.00;99.90
1996;DHT22;38556;47.068;15.408;2023-06-10T03:16:06;18.00;99.90
1996;DHT22;38556;47.068;15.408;2023-06-10T03:18:34;18.00;99.90
1996;DHT22;38556;47.068;15.408;2023-06-10T03:21:02;18.10;99.90
1996;DHT22;38556;47.068;15.408;2023-06-10T03:23:30;18.10;99.90
1996;DHT22;38556;47.068;15.408;2023-06-10T03:25:59;18.10;99.90
1996;DHT22;38556;47.068;15.408;2023-06-10T03:28:26;18.20;99.90
1996;DHT22;38556;47.068;15.408;2023-06-10T03:30:53;18.10;99.90
1996;DHT22;38556;47.068;15.408;2023-06-10T03:33:21;18.10;99.90
1996;DHT22;38556;47.068;15.408;2023-06-10T03:35:49;18.20;99.90
1996;DHT22;38556;47.068;15.408;2023-06-10T03:38:18;18.20;99.90
1996;DHT22;38556;47.068;15.408;2023-06-10T03:40:45;18.20;99.90
1996;DHT22;38556;47.068;15.408;2023-06-10T03:43:12;18.10;99.90
1996;DHT22;38556;47.068;15.408;2023-06-10T03:45:40;18.10;99.90
1996;DHT22;38556;47.068;15.408;2023-06-10T03:48:08;18.00;99.90
1996;DHT22;38556;47.068;15.408;2023-06-10T03:50:35;18.00;99.90
1996;DHT22;38556;47.068;15.408;2023-06-10T03:53:03;18.00;99.90
1996;DHT22;38556;47.068;15.408;2023-06-10T03:55:31;18.00;99.90
1996;DHT22;38556;47.068;15.408;2023-06-10T03:57:59;17.90;99.90
1996;DHT22;38556;47.068;15.408;2023-06-10T04:00:26;18.00;99.90
1996;DHT22;38556;47.068;15.408;2023-06-10T04:02:53;18.00;99.90
1996;DHT22;38556;47.068;15.408;2023-06-10T04:05:23;18.00;99.90
1996;DHT22;38556;47.068;15.408;2023-06-10T04:07:50;17.90;99.90
1996;DHT22;38556;47.068;15.408;2023-06-10T04:10:18;20.00;99.90
1996;DHT22;38556;47.068;15.408;2023-06-10T04:12:47;17.90;99.90
1996;DHT22;38556;47.068;15.408;2023-06-10T04:15:15;18.00;99.90
1996;DHT22;38556;47.068;15.408;2023-06-10T04:17:42;17.90;99.90
1996;DHT22;38556;47.068;15.408;2023-06-10T04:20:10;18.00;99.90
1996;DHT22;38556;47.068;15.408;2023-06-10T04:22:37;18.00;99.90
1996;DHT22;38556;47.068;15.408;2023-06-10T04:25:05;17.90;99.90
1996;DHT22;38556;47.068;15.408;2023-06-10T04:27:33;18.00;99.90
1996;DHT22;38556;47.068;15.408;2023-06-10T04:30:02;18.00;99.90
1996;DHT22;38556;47.068;15.408;2023-06-10T04:32:30;17.90;99.90
1996;DHT22;38556;47.068;15.408;2023-06-10T04:34:57;17.90;99.90
1996;DHT22;38556;47.068;15.408;2023-06-10T04:37:24;17.70;99.90
1996;DHT22;38556;47.068;15.408;2023-06-10T04:39:52;17.80;99.90
1996;DHT22;38556;47.068;15.408;2023-06-10T04:42:19;17.90;99.90
1996;DHT22;38556;47.068;15.408;2023-06-10T04:44:46;18.00;99.90
1996;DHT22;38556;47.068;15.408;2023-06-10T04:47:15;18.00;99.90
1996;DHT22;38556;47.068;15.408;2023-06-10T04:49:43;18.00;99.90
1996;DHT22;38556;47.068;15.408;2023-06-10T04:52:10;18.00;99.90
1996;DHT22;38556;47.068;15.408;2023-06-10T04:54:38;17.80;99.90
1996;DHT22;38556;47.068;15.408;2023-06-10T04:57:06;17.80;99.90
1996;DHT22;38556;47.068;15.408;2023-06-10T04:59:34;17.90;99.90
1996;DHT22;38556;47.068;15.408;2023-06-10T05:02:03;17.80;99.90
1996;DHT22;38556;47.068;15.408;2023-06-10T05:04:33;17.80;99.90
1996;DHT22;38556;47.068;15.408;2023-06-10T05:07:00;17.60;99.90
1996;DHT22;38556;47.068;15.408;2023-06-10T05:09:27;17.60;99.90
1996;DHT22;38556;47.068;15.408;2023-06-10T05:11:54;17.70;99.90
1996;DHT22;38556;47.068;15.408;2023-06-10T05:14:21;17.70;99.90
1996;DHT22;38556;47.068;15.408;2023-06-10T05:16:49;17.90;99.90
1996;DHT22;38556;47.068;15.408;2023-06-10T05:19:16;17.90;99.90
1996;DHT22;38556;47.068;15.408;2023-06-10T05:21:45;18.00;99.90
1996;DHT22;38556;47.068;15.408;2023-06-10T05:24:13;18.10;99.90
1996;DHT22;38556;47.068;15.408;2023-06-10T05:26:40;18.30;99.90
1996;DHT22;38556;47.068;15.408;2023-06-10T05:29:08;18.30;99.90
1996;DHT22;38556;47.068;15.408;2023-06-10T05:31:35;18.40;99.90
1996;DHT22;38556;47.068;15.408;2023-06-10T05:34:02;18.50;99.90
1996;DHT22;38556;47.068;15.408;2023-06-10T05:36:30;18.60;99.90
1996;DHT22;38556;47.068;15.408;2023-06-10T05:39:00;18.60;99.90
1996;DHT22;38556;47.068;15.408;2023-06-10T05:41:26;18.70;99.90
1996;DHT22;38556;47.068;15.408;2023-06-10T05:43:54;18.70;99.90
1996;DHT22;38556;47.068;15.408;2023-06-10T05:46:21;18.90;99.90
1996;DHT22;38556;47.068;15.408;2023-06-10T05:48:49;19.00;99.90
1996;DHT22;38556;47.068;15.408;2023-06-10T05:51:16;19.00;99.90
1996;DHT22;38556;47.068;15.408;2023-06-10T05:53:44;19.10;99.90
1996;DHT22;38556;47.068;15.408;2023-06-10T05:56:13;19.20;99.90
1996;DHT22;38556;47.068;15.408;2023-06-10T05:58:41;19.20;99.90
1996;DHT22;38556;47.068;15.408;2023-06-10T06:01:09;19.30;99.90
1996;DHT22;38556;47.068;15.408;2023-06-10T06:03:36;19.20;99.90
1996;DHT22;38556;47.068;15.408;2023-06-10T06:06:04;19.30;99.90
1996;DHT22;38556;47.068;15.408;2023-06-10T06:08:31;19.40;99.90
1996;DHT22;38556;47.068;15.408;2023-06-10T06:10:59;19.40;99.90
1996;DHT22;38556;47.068;15.408;2023-06-10T06:13:27;19.30;99.90
1996;DHT22;38556;47.068;15.408;2023-06-10T06:15:54;19.20;99.90
1996;DHT22;38556;47.068;15.408;2023-06-10T06:18:21;19.30;99.90
1996;DHT22;38556;47.068;15.408;2023-06-10T06:20:49;19.30;99.90
1996;DHT22;38556;47.068;15.408;2023-06-10T06:23:16;19.40;99.90
1996;DHT22;38556;47.068;15.408;2023-06-10T06:25:45;19.40;99.90
1996;DHT22;38556;47.068;15.408;2023-06-10T06:28:12;19.50;99.90
1996;DHT22;38556;47.068;15.408;2023-06-10T06:30:41;19.60;99.90
1996;DHT22;38556;47.068;15.408;2023-06-10T06:33:09;19.70;99.90
1996;DHT22;38556;47.068;15.408;2023-06-10T06:35:36;19.80;99.90
1996;DHT22;38556;47.068;15.408;2023-06-10T06:38:04;19.80;99.90
1996;DHT22;38556;47.068;15.408;2023-06-10T06:40:32;19.80;99.90
1996;DHT22;38556;47.068;15.408;2023-06-10T06:42:59;19.80;99.90
1996;DHT22;38556;47.068;15.408;2023-06-10T06:45:26;19.70;99.90
1996;DHT22;38556;47.068;15.408;2023-06-10T06:47:55;19.60;99.90
1996;DHT22;38556;47.068;15.408;2023-06-10T06:50:23;19.70;99.90
1996;DHT22;38556;47.068;15.408;2023-06-10T06:52:50;19.80;99.90
1996;DHT22;38556;47.068;15.408;2023-06-10T06:55:17;19.90;99.90
1996;DHT22;38556;47.068;15.408;2023-06-10T06:57:44;19.80;99.90
1996;DHT22;38556;47.068;15.408;2023-06-10T07:00:12;19.80;99.90
1996;DHT22;38556;47.068;15.408;2023-06-10T07:02:39;19.90;99.90
1996;DHT22;38556;47.068;15.408;2023-06-10T07:05:09;19.70;99.90
1996;DHT22;38556;47.068;15.408;2023-06-10T07:07:36;19.60;99.90
1996;DHT22;38556;47.068;15.408;2023-06-10T07:10:04;19.70;99.90
1996;DHT22;38556;47.068;15.408;2023-06-10T07:12:31;19.70;99.90
1996;DHT22;38556;47.068;15.408;2023-06-10T07:14:59;19.80;99.90
1996;DHT22;38556;47.068;15.408;2023-06-10T07:17:26;19.80;99.90
1996;DHT22;38556;47.068;15.408;2023-06-10T07:19:54;19.90;99.90
1996;DHT22;38556;47.068;15.408;2023-06-10T07:22:24;20.00;99.90
1996;DHT22;38556;47.068;15.408;2023-06-10T07:24:52;20.10;99.90
1996;DHT22;38556;47.068;15.408;2023-06-10T07:27:20;20.20;99.90
1996;DHT22;38556;47.068;15.408;2023-06-10T07:29:48;20.30;99.90
1996;DHT22;38556;47.068;15.408;2023-06-10T07:32:15;20.30;99.90
1996;DHT22;38556;47.068;15.408;2023-06-10T07:34:42;20.40;99.90
1996;DHT22;38556;47.068;15.408;2023-06-10T07:37:10;20.60;99.90
1996;DHT22;38556;47.068;15.408;2023-06-10T07:39:38;20.70;99.90
1996;DHT22;38556;47.068;15.408;2023-06-10T07:42:06;21.20;99.90
1996;DHT22;38556;47.068;15.408;2023-06-10T07:44:34;21.20;99.90
1996;DHT22;38556;47.068;15.408;2023-06-10T07:47:02;21.50;99.90
1996;DHT22;38556;47.068;15.408;2023-06-10T07:49:30;21.50;99.90
1996;DHT22;38556;47.068;15.408;2023-06-10T07:51:57;21.70;99.90
1996;DHT22;38556;47.068;15.408;2023-06-10T07:54:25;21.70;99.90
1996;DHT22;38556;47.068;15.408;2023-06-10T07:56:54;21.90;99.90
1996;DHT22;38556;47.068;15.408;2023-06-10T07:59:21;21.90;99.90
1996;DHT22;38556;47.068;15.408;2023-06-10T08:01:49;22.00;99.90
1996;DHT22;38556;47.068;15.408;2023-06-10T08:04:16;22.00;99.90
1996;DHT22;38556;47.068;15.408;2023-06-10T08:06:43;21.80;99.90
1996;DHT22;38556;47.068;15.408;2023-06-10T08:09:10;21.80;99.90
1996;DHT22;38556;47.068;15.408;2023-06-10T08:11:38;21.60;99.90
1996;DHT22;38556;47.068;15.408;2023-06-10T08:14:06;21.40;99.90
1996;DHT22;38556;47.068;15.408;2023-06-10T08:16:34;21.20;99.90
1996;DHT22;38556;47.068;15.408;2023-06-10T08:19:01;21.20;99.90
1996;DHT22;38556;47.068;15.408;2023-06-10T08:21:28;21.30;99.90
1996;DHT22;38556;47.068;15.408;2023-06-10T08:23:55;21.30;99.90
1996;DHT22;38556;47.068;15.408;2023-06-10T08:26:23;21.40;99.90
1996;DHT22;38556;47.068;15.408;2023-06-10T08:28:51;21.40;99.90
1996;DHT22;38556;47.068;15.408;2023-06-10T08:31:20;21.30;99.90
1996;DHT22;38556;47.068;15.408;2023-06-10T08:33:47;21.30;99.90
1996;DHT22;38556;47.068;15.408;2023-06-10T08:36:14;21.40;99.90
1996;DHT22;38556;47.068;15.408;2023-06-10T08:38:42;21.40;99.90
1996;DHT22;38556;47.068;15.408;2023-06-10T08:41:12;21.50;99.90
1996;DHT22;38556;47.068;15.408;2023-06-10T08:43:44;21.60;99.90
1996;DHT22;38556;47.068;15.408;2023-06-10T08:46:14;21.50;99.90
1996;DHT22;38556;47.068;15.408;2023-06-10T08:48:44;21.50;99.90
1996;DHT22;38556;47.068;15.408;2023-06-10T08:51:14;21.60;99.90
1996;DHT22;38556;47.068;15.408;2023-06-10T08:53:49;21.50;99.90
1996;DHT22;38556;47.068;15.408;2023-06-10T08:56:18;21.70;99.90
1996;DHT22;38556;47.068;15.408;2023-06-10T08:58:48;21.80;99.90
1996;DHT22;38556;47.068;15.408;2023-06-10T09:01:15;21.90;99.90
1996;DHT22;38556;47.068;15.408;2023-06-10T09:03:44;21.90;99.90
1996;DHT22;38556;47.068;15.408;2023-06-10T09:06:11;22.10;99.90
1996;DHT22;38556;47.068;15.408;2023-06-10T09:08:40;21.90;99.90
1996;DHT22;38556;47.068;15.408;2023-06-10T09:11:07;21.90;99.90
1996;DHT22;38556;47.068;15.408;2023-06-10T09:13:35;22.00;99.90
1996;DHT22;38556;47.068;15.408;2023-06-10T09:16:03;22.10;99.90
1996;DHT22;38556;47.068;15.408;2023-06-10T09:18:31;21.70;99.90
1996;DHT22;38556;47.068;15.408;2023-06-10T09:21:00;21.70;99.90
1996;DHT22;38556;47.068;15.408;2023-06-10T09:23:27;21.90;99.90
1996;DHT22;38556;47.068;15.408;2023-06-10T09:25:58;22.10;99.90
1996;DHT22;38556;47.068;15.408;2023-06-10T09:28:25;22.10;99.90
1996;DHT22;38556;47.068;15.408;2023-06-10T09:31:02;22.10;99.90
1996;DHT22;38556;47.068;15.408;2023-06-10T09:33:30;22.20;99.90
1996;DHT22;38556;47.068;15.408;2023-06-10T09:36:00;22.20;99.90
1996;DHT22;38556;47.068;15.408;2023-06-10T09:38:30;22.10;99.90
1996;DHT22;38556;47.068;15.408;2023-06-10T09:40:58;22.10;99.90
1996;DHT22;38556;47.068;15.408;2023-06-10T09:43:39;22.10;99.90
1996;DHT22;38556;47.068;15.408;2023-06-10T09:46:14;22.10;99.90
1996;DHT22;38556;47.068;15.408;2023-06-10T09:48:42;22.10;99.90
1996;DHT22;38556;47.068;15.408;2023-06-10T09:51:13;22.00;99.90
1996;DHT22;38556;47.068;15.408;2023-06-10T09:53:40;22.10;99.90
1996;DHT22;38556;47.068;15.408;2023-06-10T09:56:08;22.00;99.90
1996;DHT22;38556;47.068;15.408;2023-06-10T09:58:36;22.30;99.90
1996;DHT22;38556;47.068;15.408;2023-06-10T10:01:09;22.00;99.90
1996;DHT22;38556;47.068;15.408;2023-06-10T10:03:47;22.20;99.90
1996;DHT22;38556;47.068;15.408;2023-06-10T10:08:44;21.80;99.90
1996;DHT22;38556;47.068;15.408;2023-06-10T10:11:12;21.90;99.90
1996;DHT22;38556;47.068;15.408;2023-06-10T10:13:41;22.00;99.90
1996;DHT22;38556;47.068;15.408;2023-06-10T10:16:11;22.20;99.90
1996;DHT22;38556;47.068;15.408;2023-06-10T10:18:40;22.50;99.90
1996;DHT22;38556;47.068;15.408;2023-06-10T10:21:12;22.50;99.90
1996;DHT22;38556;47.068;15.408;2023-06-10T10:23:47;22.80;99.90
1996;DHT22;38556;47.068;15.408;2023-06-10T10:26:17;22.90;99.90
1996;DHT22;38556;47.068;15.408;2023-06-10T10:28:50;22.90;99.90
1996;DHT22;38556;47.068;15.408;2023-06-10T10:31:19;23.00;99.90
1996;DHT22;38556;47.068;15.408;2023-06-10T10:33:54;23.10;99.90
1996;DHT22;38556;47.068;15.408;2023-06-10T10:36:23;23.10;99.90
1996;DHT22;38556;47.068;15.408;2023-06-10T10:38:51;23.00;99.90
1996;DHT22;38556;47.068;15.408;2023-06-10T10:41:19;23.00;99.90
1996;DHT22;38556;47.068;15.408;2023-06-10T10:43:47;23.10;99.90
1996;DHT22;38556;47.068;15.408;2023-06-10T10:46:16;23.20;99.90
1996;DHT22;38556;47.068;15.408;2023-06-10T10:48:44;23.20;99.90
1996;DHT22;38556;47.068;15.408;2023-06-10T10:51:15;23.30;99.90
1996;DHT22;38556;47.068;15.408;2023-06-10T10:53:43;23.30;99.90
1996;DHT22;38556;47.068;15.408;2023-06-10T10:56:15;23.30;99.90
1996;DHT22;38556;47.068;15.408;2023-06-10T10:59:03;23.30;99.90
1996;DHT22;38556;47.068;15.408;2023-06-10T11:01:39;23.50;99.90
1996;DHT22;38556;47.068;15.408;2023-06-10T11:04:08;23.60;99.90
1996;DHT22;38556;47.068;15.408;2023-06-10T11:06:35;23.70;99.90
1996;DHT22;38556;47.068;15.408;2023-06-10T11:09:25;23.70;99.90
1996;DHT22;38556;47.068;15.408;2023-06-10T11:11:56;23.30;99.90
1996;DHT22;38556;47.068;15.408;2023-06-10T11:14:27;23.40;99.90
1996;DHT22;38556;47.068;15.408;2023-06-10T11:16:57;23.60;99.90
1996;DHT22;38556;47.068;15.408;2023-06-10T11:19:34;23.50;99.90
1996;DHT22;38556;47.068;15.408;2023-06-10T11:22:03;23.60;99.90
1996;DHT22;38556;47.068;15.408;2023-06-10T11:24:30;23.70;99.90
1996;DHT22;38556;47.068;15.408;2023-06-10T11:27:18;23.80;99.90
1996;DHT22;38556;47.068;15.408;2023-06-10T11:32:51;23.90;99.90
1996;DHT22;38556;47.068;15.408;2023-06-10T11:35:19;24.00;99.90
1996;DHT22;38556;47.068;15.408;2023-06-10T11:37:47;24.10;99.90
1996;DHT22;38556;47.068;15.408;2023-06-10T11:40:15;24.10;99.90
1996;DHT22;38556;47.068;15.408;2023-06-10T11:42:45;24.20;99.90
1996;DHT22;38556;47.068;15.408;2023-06-10T11:45:15;24.30;99.90
1996;DHT22;38556;47.068;15.408;2023-06-10T11:47:56;24.30;99.90
1996;DHT22;38556;47.068;15.408;2023-06-10T11:50:30;24.40;99.90
1996;DHT22;38556;47.068;15.408;2023-06-10T11:52:58;24.40;99.90
1996;DHT22;38556;47.068;15.408;2023-06-10T11:55:26;24.30;99.90
1996;DHT22;38556;47.068;15.408;2023-06-10T11:58:12;24.40;99.90
1996;DHT22;38556;47.068;15.408;2023-06-10T12:00:44;24.50;99.90
1996;DHT22;38556;47.068;15.408;2023-06-10T12:03:12;24.60;99.90
1996;DHT22;38556;47.068;15.408;2023-06-10T12:05:39;24.70;99.90
1996;DHT22;38556;47.068;15.408;2023-06-10T12:08:11;24.70;99.90
1996;DHT22;38556;47.068;15.408;2023-06-10T12:10:40;24.60;99.90
1996;DHT22;38556;47.068;15.408;2023-06-10T12:13:10;24.60;99.90
1996;DHT22;38556;47.068;15.408;2023-06-10T12:15:37;24.90;99.90
1996;DHT22;38556;47.068;15.408;2023-06-10T12:18:04;25.00;99.90
1996;DHT22;38556;47.068;15.408;2023-06-10T12:20:32;25.10;99.90
1996;DHT22;38556;47.068;15.408;2023-06-10T12:23:07;25.00;99.90
1996;DHT22;38556;47.068;15.408;2023-06-10T12:25:35;25.20;99.90
1996;DHT22;38556;47.068;15.408;2023-06-10T12:28:04;25.20;99.90
1996;DHT22;38556;47.068;15.408;2023-06-10T12:30:33;25.30;99.90
1996;DHT22;38556;47.068;15.408;2023-06-10T12:33:01;25.30;99.90
1996;DHT22;38556;47.068;15.408;2023-06-10T12:35:28;25.40;99.90
1996;DHT22;38556;47.068;15.408;2023-06-10T12:37:57;25.40;99.90
1996;DHT22;38556;47.068;15.408;2023-06-10T12:40:26;25.50;99.90
1996;DHT22;38556;47.068;15.408;2023-06-10T12:42:55;25.70;99.90
1996;DHT22;38556;47.068;15.408;2023-06-10T12:45:29;25.80;99.90
1996;DHT22;38556;47.068;15.408;2023-06-10T12:48:09;25.90;99.90
1996;DHT22;38556;47.068;15.408;2023-06-10T12:50:37;26.00;99.90
1996;DHT22;38556;47.068;15.408;2023-06-10T12:53:05;25.80;99.90
1996;DHT22;38556;47.068;15.408;2023-06-10T12:55:33;25.20;99.90
1996;DHT22;38556;47.068;15.408;2023-06-10T12:58:01;24.80;99.90
1996;DHT22;38556;47.068;15.408;2023-06-10T13:00:29;24.60;99.90
1996;DHT22;38556;47.068;15.408;2023-06-10T13:02:58;22.00;99.90
1996;DHT22;38556;47.068;15.408;2023-06-10T13:05:28;24.50;99.90
1996;DHT22;38556;47.068;15.408;2023-06-10T13:07:55;24.20;99.90
1996;DHT22;38556;47.068;15.408;2023-06-10T13:10:23;24.00;99.90
1996;DHT22;38556;47.068;15.408;2023-06-10T13:12:51;24.00;99.90
1996;DHT22;38556;47.068;15.408;2023-06-10T13:15:20;23.70;99.90
1996;DHT22;38556;47.068;15.408;2023-06-10T13:17:48;23.70;99.90
1996;DHT22;38556;47.068;15.408;2023-06-10T13:20:17;23.70;99.90
1996;DHT22;38556;47.068;15.408;2023-06-10T13:22:46;23.90;99.90
1996;DHT22;38556;47.068;15.408;2023-06-10T13:25:14;24.00;99.90
1996;DHT22;38556;47.068;15.408;2023-06-10T13:27:41;23.90;99.90
1996;DHT22;38556;47.068;15.408;2023-06-10T13:30:10;23.90;99.90
1996;DHT22;38556;47.068;15.408;2023-06-10T13:32:37;23.50;99.90
1996;DHT22;38556;47.068;15.408;2023-06-10T13:35:05;23.20;99.90
1996;DHT22;38556;47.068;15.408;2023-06-10T13:37:33;22.80;99.90
1996;DHT22;38556;47.068;15.408;2023-06-10T13:40:02;22.90;99.90
1996;DHT22;38556;47.068;15.408;2023-06-10T13:42:30;23.00;99.90
1996;DHT22;38556;47.068;15.408;2023-06-10T13:44:58;22.70;99.90
1996;DHT22;38556;47.068;15.408;2023-06-10T13:47:25;22.70;99.90
1996;DHT22;38556;47.068;15.408;2023-06-10T13:49:53;22.80;99.90
1996;DHT22;38556;47.068;15.408;2023-06-10T13:52:20;23.10;99.90
1996;DHT22;38556;47.068;15.408;2023-06-10T13:54:47;23.30;99.90
1996;DHT22;38556;47.068;15.408;2023-06-10T13:57:16;23.40;99.90
1996;DHT22;38556;47.068;15.408;2023-06-10T13:59:43;23.50;99.90
1996;DHT22;38556;47.068;15.408;2023-06-10T14:02:10;23.50;99.90
1996;DHT22;38556;47.068;15.408;2023-06-10T14:04:38;23.50;99.90
1996;DHT22;38556;47.068;15.408;2023-06-10T14:07:05;23.60;99.90
1996;DHT22;38556;47.068;15.408;2023-06-10T14:09:33;23.60;99.90
1996;DHT22;38556;47.068;15.408;2023-06-10T14:12:00;23.50;99.90
1996;DHT22;38556;47.068;15.408;2023-06-10T14:14:31;23.50;99.90
1996;DHT22;38556;47.068;15.408;2023-06-10T14:16:58;23.20;99.90
1996;DHT22;38556;47.068;15.408;2023-06-10T14:19:26;23.20;99.90
1996;DHT22;38556;47.068;15.408;2023-06-10T14:21:53;23.30;99.90
1996;DHT22;38556;47.068;15.408;2023-06-10T14:24:21;23.10;99.90
1996;DHT22;38556;47.068;15.408;2023-06-10T14:26:48;23.00;99.90
1996;DHT22;38556;47.068;15.408;2023-06-10T14:29:16;23.00;99.90
1996;DHT22;38556;47.068;15.408;2023-06-10T14:31:46;23.00;99.90
1996;DHT22;38556;47.068;15.408;2023-06-10T14:34:13;22.80;99.90
1996;DHT22;38556;47.068;15.408;2023-06-10T14:36:40;23.00;99.90
1996;DHT22;38556;47.068;15.408;2023-06-10T14:39:08;23.00;99.90
1996;DHT22;38556;47.068;15.408;2023-06-10T14:41:35;23.00;99.90
1996;DHT22;38556;47.068;15.408;2023-06-10T14:44:03;23.00;99.90
1996;DHT22;38556;47.068;15.408;2023-06-10T14:46:30;23.10;99.90
1996;DHT22;38556;47.068;15.408;2023-06-10T14:48:59;23.00;99.90
1996;DHT22;38556;47.068;15.408;2023-06-10T14:51:28;23.00;99.90
1996;DHT22;38556;47.068;15.408;2023-06-10T14:53:55;23.10;99.90
1996;DHT22;38556;47.068;15.408;2023-06-10T14:56:23;23.00;99.90
1996;DHT22;38556;47.068;15.408;2023-06-10T14:58:52;23.00;99.90
1996;DHT22;38556;47.068;15.408;2023-06-10T15:01:19;22.90;99.90
1996;DHT22;38556;47.068;15.408;2023-06-10T15:03:46;22.80;99.90
1996;DHT22;38556;47.068;15.408;2023-06-10T15:06:15;22.80;99.90
1996;DHT22;38556;47.068;15.408;2023-06-10T15:08:47;22.80;99.90
1996;DHT22;38556;47.068;15.408;2023-06-10T15:11:14;22.70;99.90
1996;DHT22;38556;47.068;15.408;2023-06-10T15:13:42;22.50;99.90
1996;DHT22;38556;47.068;15.408;2023-06-10T15:16:09;22.40;99.90
1996;DHT22;38556;47.068;15.408;2023-06-10T15:18:37;21.90;99.90
1996;DHT22;38556;47.068;15.408;2023-06-10T15:21:04;21.80;99.90
1996;DHT22;38556;47.068;15.408;2023-06-10T15:23:33;21.80;99.90
1996;DHT22;38556;47.068;15.408;2023-06-10T15:26:01;21.80;99.90
1996;DHT22;38556;47.068;15.408;2023-06-10T15:28:28;21.80;99.90
1996;DHT22;38556;47.068;15.408;2023-06-10T15:30:55;21.60;99.90
1996;DHT22;38556;47.068;15.408;2023-06-10T15:33:22;21.60;99.90
1996;DHT22;38556;47.068;15.408;2023-06-10T15:35:51;21.60;99.90
1996;DHT22;38556;47.068;15.408;2023-06-10T15:38:18;21.50;99.90
1996;DHT22;38556;47.068;15.408;2023-06-10T15:40:47;21.40;99.90
1996;DHT22;38556;47.068;15.408;2023-06-10T15:43:14;21.20;99.90